• Join FlightAware (Why Join?)
  • Login
  • US Flag 
09:23AM EDT


 

Airport Tracker/Info


-or-


 

Live Flight TrackerFlight Track Log ✈ N123TF ✈ 29-Apr-2013 ✈ KAPC - KSAF

Flight Track Log - Related Links

Times and Time Zones

All times are in EDT time to prevent confusion due to time zone crossing. See the N123TF flight status page for this flight to view local times or setup timezone preferences in your user account.

Time Position Orientation Groundspeed Altitude Reporting Facility
EDT Latitude Longitude Course Direction KTS MPH feet Rate Location/Type
01:48PM 38.1436 -122.3039 104° East 201 231 3,200  Level Oakland Center
01:49PM 38.0936 -122.2692 151° Southeast 207 238 4,500 1,500 Climbing Oakland Center
01:50PM 38.0919 -122.1822 91° East 241 277 6,300 1,860 Climbing Oakland Center
01:51PM 38.1181 -122.1214 61° Northeast 202 232 8,400 1,860 Climbing Oakland Center
01:52PM 38.0704 -121.4917 106° East  Level FlightAware Approximate
01:52PM 38.1247 -122.0494 83° East 222 255 10,200  Level Oakland Center
01:53PM 38.0500 -121.3803 90° East  Level FlightAware Approximate
01:54PM 38.0304 -121.2686 104° East  Level FlightAware Approximate
01:54PM 38.1114 -121.9736 103° East 221 254 11,900  Level Oakland Center
01:55PM 38.1228 -121.8997 79° East 213 245 13,600 1,740 Climbing Oakland Center
01:56PM 38.1372 -121.8092 79° East 217 250 15,500 1,560 Climbing Oakland Center
01:57PM 38.1494 -121.7314 79° East 223 257 16,900 1,260 Climbing Oakland Center
01:58PM 38.1647 -121.6511 76° East 233 268 18,200 1,260 Climbing Oakland Center
01:59PM 38.1800 -121.5669 77° East 242 278 19,600 1,260 Climbing Oakland Center
02:00PM 38.1942 -121.4864 77° East 245 282 20,900 1,200 Climbing Oakland Center
02:01PM 38.2100 -121.3986 77° East 253 291 22,100 1,140 Climbing Oakland Center
02:02PM 38.2250 -121.3086 78° East 260 299 23,300 1,260 Climbing Oakland Center
02:03PM 38.2042 -121.1981 103° East 269 310 24,700 780 Climbing Oakland Center
02:04PM 38.1867 -121.1011 103° East 280 322 25,000 120 Climbing Oakland Center
02:05PM 38.1672 -120.9903 103° East 317 365 25,000 660 Level Oakland Center
02:06PM 38.1467 -120.8769 103° East 329 379 26,400 960 Climbing Oakland Center
02:07PM 38.1492 -120.7814 88° East 290 334 27,000 240 Climbing Oakland Center
02:08PM 38.1428 -120.6733 94° East 318 366 27,000 60 Level Oakland Center
02:09PM 38.1211 -120.5575 103° East 334 384 27,200 1,260 Climbing Oakland Center
02:10PM 38.0981 -120.4400 104° East 279 321 29,700 1,740 Climbing Oakland Center
02:11PM 38.0803 -120.3461 103° East 275 316 30,800 1,020 Climbing Oakland Center
02:12PM 38.0617 -120.2547 104° East 267 307 31,800 960 Climbing Oakland Center
02:13PM 38.0439 -120.1608 103° East 272 313 32,800 960 Climbing Oakland Center
02:14PM 38.0278 -120.0703 103° East 264 304 33,800 840 Climbing Oakland Center
02:15PM 38.0103 -119.9814 104° East 263 303 34,600 540 Climbing Oakland Center
02:16PM 37.9906 -119.8919 106° East 264 304 35,000 180 Climbing Oakland Center
02:17PM 37.9706 -119.7939 104° East 288 331 35,000  Level Oakland Center
02:18PM 37.9489 -119.6872 104° East 310 357 35,000  Level Oakland Center
02:19PM 37.9225 -119.5525 104° East 329 379 35,000  Level Oakland Center
02:20PM 37.8975 -119.4389 106° East 335 386 35,000  Level Oakland Center
02:21PM 37.8744 -119.3228 104° East 339 390 35,000  Level Oakland Center
02:22PM 37.8489 -119.2044 105° East 346 398 35,000  Level Oakland Center
02:23PM 37.8244 -119.0867 105° East 347 399 35,000  Level Oakland Center
02:24PM 37.7994 -118.9683 105° East 348 400 35,000  Level Oakland Center
02:25PM 37.7753 -118.8500 104° East 347 399 35,000  Level Oakland Center
02:26PM 37.7486 -118.7225 105° East 345 397 35,000  Level Oakland Center
02:27PM 37.7228 -118.6061 106° East 345 397 35,000  Level Oakland Center
02:28PM 37.6994 -118.4903 104° East 341 392 35,000  Level Oakland Center
02:29PM 37.6736 -118.3747 106° East 343 395 35,000  Level Oakland Center
02:30PM 37.6481 -118.2589 106° East 343 395 35,000  Level Oakland Center
02:31PM 37.6183 -118.1208 105° East 341 392 35,000  Level Oakland Center
02:32PM 37.5931 -118.0056 105° East 342 394 35,000  Level Oakland Center
02:33PM 37.5672 -117.8903 106° East 342 394 35,000  Level Oakland Center
02:34PM 37.5422 -117.7758 105° East 342 394 35,000  Level Oakland Center
02:36PM 37.5164 -117.6594 106° East 345 397 35,000  Level Oakland Center
02:37PM 37.4911 -117.5450 106° East 342 394 35,000  Level Oakland Center
02:38PM 37.4644 -117.4289 106° East 346 398 35,000  Level Oakland Center
02:39PM 37.4381 -117.3133 106° East 345 397 35,000  Level Oakland Center
02:40PM 37.3525 -117.2156 138° Southeast 360 414 35,000  Level Oakland Center
02:41PM 37.2706 -117.1419 144° Southeast 361 415 35,000  Level Oakland Center
02:42PM 37.1878 -117.0722 146° Southeast 361 415 35,000  Level Oakland Center
02:43PM 37.1053 -117.0033 146° Southeast 358 412 35,000  Level Oakland Center
02:44PM 37.0225 -116.9328 146° Southeast 357 411 35,000  Level Oakland Center
02:45PM 36.9394 -116.8633 146° Southeast 358 412 35,000  Level Los Angeles Center
02:46PM 36.8556 -116.7944 147° Southeast 360 414 35,000  Level Los Angeles Center
02:47PM 36.7761 -116.6864 133° Southeast 356 410 35,000  Level Los Angeles Center
02:48PM 36.7311 -116.5783 117° Southeast 353 406 35,000  Level Los Angeles Center
02:49PM 36.6850 -116.4697 118° Southeast 352 405 35,000  Level Los Angeles Center
02:50PM 36.6400 -116.3603 117° Southeast 355 409 35,000  Level Los Angeles Center
02:51PM 36.5947 -116.2517 117° Southeast 355 409 35,000  Level Los Angeles Center
02:52PM 36.5483 -116.1431 118° Southeast 355 409 35,000  Level Los Angeles Center
02:53PM 36.4994 -116.0092 114° Southeast 356 410 35,000  Level Los Angeles Center
02:54PM 36.4700 -115.8947 108° East 350 403 35,000  Level Los Angeles Center
02:55PM 36.4386 -115.7772 108° East 349 402 35,000  Level Los Angeles Center
02:56PM 36.4069 -115.6608 109° East 352 405 35,000  Level Los Angeles Center
02:57PM 36.3761 -115.5511 109° East 351 404 35,000  Level Los Angeles Center
02:58PM 36.3725 -115.4169 92° East 356 410 35,000  Level Los Angeles Center
02:59PM 36.3672 -115.2997 93° East 342 394 35,000  Level Los Angeles Center
03:00PM 36.3617 -115.1781 93° East 349 402 35,000  Level Los Angeles Center
03:01PM 36.3567 -115.0589 93° East 348 400 35,000  Level Los Angeles Center
03:02PM 36.3503 -114.9169 93° East 344 396 35,000  Level Los Angeles Center
03:03PM 36.3439 -114.7972 94° East 346 398 35,000  Level Los Angeles Center
03:04PM 36.3381 -114.6783 93° East 345 397 35,000  Level Los Angeles Center
03:05PM 36.3328 -114.5594 93° East 345 397 35,000  Level Los Angeles Center
03:07PM 36.3267 -114.4406 94° East 346 398 35,000  Level Los Angeles Center
03:08PM 36.3208 -114.3208 93° East 347 399 35,000  Level Los Angeles Center
03:09PM 36.3136 -114.1783 94° East 346 398 35,000  Level Los Angeles Center
03:10PM 36.3072 -114.0592 94° East 346 398 35,000  Level Los Angeles Center
03:11PM 36.3000 -113.9394 94° East 347 399 35,000  Level Los Angeles Center
03:12PM 36.2947 -113.8208 93° East 346 398 35,000  Level Los Angeles Center
03:13PM 36.2869 -113.7022 95° East 346 398 35,000  Level Los Angeles Center
03:14PM 36.2803 -113.5828 94° East 347 399 35,000  Level Los Angeles Center
03:15PM 36.2722 -113.4397 94° East 347 399 35,000  Level Los Angeles Center
03:16PM 36.2658 -113.3206 94° East 346 398 35,000  Level Los Angeles Center
03:17PM 36.2594 -113.2008 94° East 347 399 35,000  Level Los Angeles Center
03:18PM 36.2506 -113.0828 95° East 346 398 35,000  Level Los Angeles Center
03:19PM 36.2436 -112.9644 94° East 345 397 35,000  Level Los Angeles Center
03:20PM 36.2372 -112.8442 94° East 346 398 35,000  Level Los Angeles Center
03:21PM 36.2286 -112.7253 95° East 347 399 35,000  Level Los Angeles Center
03:22PM 36.2189 -112.5836 95° East 346 398 35,000  Level Los Angeles Center
03:23PM 36.2114 -112.4656 94° East 346 398 35,000  Level Los Angeles Center
03:24PM 36.2042 -112.3481 94° East 345 397 35,000  Level Los Angeles Center
03:25PM 36.1953 -112.2292 95° East 345 397 35,000  Level Los Angeles Center
03:26PM 36.1872 -112.1103 95° East 347 399 35,000  Level Los Angeles Center
03:27PM 36.1772 -111.9689 95° East 347 399 35,000  Level Los Angeles Center
03:28PM 36.1678 -111.8500 96° East 346 398 35,000  Level Los Angeles Center
03:29PM 36.1600 -111.7325 95° East 346 398 35,000  Level Los Angeles Center
03:30PM 36.1511 -111.6142 95° East 347 399 35,000  Level Los Angeles Center
03:31PM 36.1425 -111.4967 95° East 345 397 35,000  Level Los Angeles Center
03:32PM 36.1325 -111.3506 95° East 346 398 35,000  Level Denver Center
03:33PM 36.1239 -111.2372 95° East 346 398 35,000  Level Denver Center
03:34PM 36.1150 -111.1239 96° East 346 398 35,000  Level Denver Center
03:36PM 36.1033 -110.9917 96° East 346 398 35,000  Level Denver Center
03:37PM 36.0950 -110.8775 95° East 347 399 35,000  Level Denver Center
03:38PM 36.0881 -110.7844 95° East 345 397 35,000  Level Denver Center
03:39PM 36.0753 -110.6336 96° East 345 397 35,000  Level Denver Center
03:40PM 36.0647 -110.5003 96° East 347 399 35,000  Level Denver Center
03:41PM 36.0556 -110.3861 96° East 348 400 35,000  Level Denver Center
03:42PM 36.0456 -110.2711 96° East 350 403 35,000  Level Denver Center
03:43PM 36.0342 -110.1378 96° East 351 404 35,000  Level Denver Center
03:44PM 36.0242 -110.0225 96° East 351 404 35,000  Level Denver Center
03:45PM 36.0119 -109.8864 96° East 354 407 35,000  Level Denver Center
03:46PM 36.0017 -109.7706 96° East 355 409 35,000  Level Denver Center
03:47PM 35.9894 -109.6364 96° East 352 405 35,000  Level Denver Center
03:48PM 35.9794 -109.5200 96° East 355 409 35,000  Level Denver Center
03:49PM 35.9681 -109.3850 96° East 354 407 35,000  Level Denver Center
03:50PM 35.9564 -109.2692 97° East 355 409 35,000  Level Denver Center
03:51PM 35.9453 -109.1528 97° East 358 412 35,000  Level Denver Center
03:52PM 35.9328 -109.0164 96° East 360 414 35,000  Level Denver Center
03:53PM 35.9217 -108.8997 97° East 362 417 35,000  Level Denver Center
03:54PM 35.9081 -108.7636 97° East 364 419 35,000  Level Denver Center
03:55PM 35.8978 -108.6467 96° East 363 418 35,000 -300 Level Denver Center
03:56PM 35.8842 -108.5100 97° East 361 415 34,500 -540 Descending Denver Center
03:57PM 35.8714 -108.3886 97° East 371 427 33,900 -840 Descending Denver Center
03:58PM 35.8594 -108.2675 97° East 371 427 32,900 -1,020 Descending Denver Center
03:59PM 35.8458 -108.1306 97° East 365 420 31,800 -1,320 Descending Denver Center
04:00PM 35.8311 -107.9944 98° East 360 414 30,200 -1,380 Descending Denver Center
04:01PM 35.8192 -107.8767 97° East 362 417 29,000 -780 Descending Denver Center
04:02PM 35.8056 -107.7481 97° East 345 397 28,700 -840 Descending Denver Center
04:03PM 35.7942 -107.6389 97° East 336 387 27,300 -1,380 Descending Denver Center
04:04PM 35.7817 -107.5244 98° East 348 400 25,900 -1,500 Descending Denver Center
04:05PM 35.7767 -107.4867 99° East 351 404 25,400 -1,560 Descending Albuquerque Center
04:06PM 35.7639 -107.3733 98° East 352 405 23,900 -1,500 Descending Albuquerque Center
04:07PM 35.7506 -107.2408 97° East 350 403 22,300 -1,500 Descending Albuquerque Center
04:08PM 35.7367 -107.1289 99° East 347 399 20,800 -1,620 Descending Albuquerque Center
04:09PM 35.7222 -106.9961 98° East 350 403 19,100 -1,560 Descending Albuquerque Center
04:10PM 35.7317 -106.8833 84° East 350 403 17,700 -1,440 Descending Albuquerque Center
04:11PM 35.7419 -106.7719 83° East 334 384 16,200 -1,320 Descending Albuquerque Center
04:12PM 35.7519 -106.6747 83° East 300 345 15,000 -1,080 Descending Albuquerque Center
04:13PM 35.7397 -106.5811 99° East 300 345 14,000 -540 Descending Albuquerque Center
04:14PM 35.7125 -106.4772 108° East 271 312 14,000  Level Albuquerque Center
04:15PM 35.6908 -106.3842 106° East 279 321 14,000 -1,020 Level Albuquerque Center
04:16PM 35.6678 -106.2911 107° East 283 326 12,000 -1,980 Descending Albuquerque Center
04:17PM 35.6444 -106.1964 107° East 287 330 10,000 -1,800 Descending Albuquerque Center
04:18PM 35.6497 -106.1353 84° East 242 278 8,300 -1,080 Descending Albuquerque Center
04:19PM 35.6697 -106.0947 59° Northeast 183 211 7,800 -780 Descending Albuquerque Center
04:20PM 35.6431 -106.0656 138° Southeast 153 176 6,800 -1,020 Descending Albuquerque Center
04:22PM 35.6167 -106.0833 238° Southwest  Level FlightAware Approximate